Palos Park, IL

1:06 PM CST on March 04, 2015 (GMT -0600)
Misty Harbour | Change Station
CLOSE
Current Station
Personal Weather Station
Location: Palos Park, IL
Elevation: 715 ft
Nearby Weather Stations

Elev 715 ft 41.66 °N, 87.89 °W | Updated 1 second ago

Overcast
Overcast
22.2 °F
Feels Like 17 °F
N
4.0
Wind Variable Wind from West
Gusts 12.0 mph

Today
High -- | Low -- °F
--% Chance of Precip.
Yesterday
High -- | Low -- °F
Precip. -- in
6:21 AM 5:45 PM
Waxing Gibbous, 99% visible
Pressure 30.19 in
Visibility 10.0 miles
Clouds Few 9000 ft
Few 14000 ft
Scattered Clouds 18000 ft
Overcast 25000 ft
Windchill 17 °F
Dew Point 8 °F
Humidity 55%
Rainfall 0.00 in
Snow Depth Not available.
UV 2.8 out of 12
Pollen .70 out of 12
Air Quality Not available.
Flu Activity Not available.
METAR KMDW 041853Z 31014KT 10SM FEW090 FEW140 SCT180 OVC250 M06/M14 A3014 RMK AO2 SLP221 T10561144

More Conditions Fewer Conditions

Pressure 30.19 in
Visibility 10.0 miles
Clouds Few 9000 ft
Few 14000 ft
Scattered Clouds 18000 ft
Overcast 25000 ft
Windchill 17 °F
Dew Point 8 °F
Humidity 55%
Rainfall 0.00 in
Snow Depth Not available.
UV 2.8 out of 12
Pollen .70 out of 12
Air Quality Not available.
Flu Activity Not available.
METAR KMDW 041853Z 31014KT 10SM FEW090 FEW140 SCT180 OVC250 M06/M14 A3014 RMK AO2 SLP221 T10561144

More Conditions Fewer Conditions

10-Day Weather Forecast

Almanac

Astronomy

Mar. 04, 2015 Rise Set
Actual Time
Civil Twilight
Nautical Twilight
Astronomical Twilight
Moon
Length of Visible Light
Length of Day
Tomorrow will be .
, % of the Moon is Illuminated

Today's Extremes

State Highs State Lows

Community

WunderPhotos

Upload Photos

1,802,543 photos uploaded!

WunderBlogs® & News

Nearby

Air Quality

  Air Quality AQ Index Pollutant
Not available.

Snow Depth

Station Depth Elevation

Earthquake Activity

City Distance Mag. Time & Date
Minimum magnitude displayed is 2.5.

Coastal Water Temperatures

Place Temperature

Nearby Weather Stations